Lindcove
DateTemperatureDew Point
05/03 - 07:45 PM69.1°47.3°
05/03 - 07:30 PM71.0°50.4°
05/03 - 07:15 PM72.4°53.2°
05/03 - 07:00 PM73.1°52.6°
05/03 - 06:45 PM73.8°52.5°
05/03 - 06:30 PM74.3°52.3°
05/03 - 06:15 PM73.9°52.2°
05/03 - 06:00 PM74.2°52.3°
05/03 - 05:45 PM74.2°51.7°
05/03 - 05:30 PM75.3°52.4°
05/03 - 05:15 PM75.1°52.0°
05/03 - 05:00 PM74.8°51.1°
05/03 - 04:45 PM75.0°51.3°
05/03 - 04:30 PM74.6°50.6°
05/03 - 04:15 PM75.0°51.2°
05/03 - 04:00 PM74.5°52.5°
05/03 - 03:45 PM74.5°52.3°
05/03 - 03:30 PM74.1°52.1°
05/03 - 03:15 PM73.7°52.2°
05/03 - 03:00 PM73.8°52.6°
05/03 - 02:45 PM73.5°53.5°
05/03 - 02:30 PM72.2°52.8°
05/03 - 02:15 PM72.9°53.5°
05/03 - 02:00 PM71.5°52.5°
05/03 - 01:45 PM71.1°52.4°
05/03 - 01:30 PM71.3°52.9°
05/03 - 01:15 PM70.4°54.1°
05/03 - 01:00 PM68.9°53.7°
05/03 - 12:45 PM68.4°53.9°
05/03 - 12:30 PM67.9°53.8°
05/03 - 12:15 PM67.7°53.7°
05/03 - 12:00 PM67.2°53.2°
05/03 - 11:45 AM66.2°53.8°
05/03 - 11:30 AM64.9°54.0°
05/03 - 11:15 AM64.1°53.8°
05/03 - 11:00 AM63.7°54.1°
05/03 - 10:45 AM62.9°54.4°
05/03 - 10:30 AM61.7°54.3°
05/03 - 10:15 AM60.9°54.5°
05/03 - 10:00 AM60.0°54.3°
05/03 - 09:45 AM59.6°54.5°
05/03 - 09:30 AM59.2°54.4°
05/03 - 09:15 AM58.9°54.5°
05/03 - 09:00 AM58.6°54.1°
05/03 - 08:45 AM58.7°54.1°
05/03 - 08:30 AM58.4°53.6°
05/03 - 08:15 AM57.9°53.5°
05/03 - 08:00 AM57.5°53.8°
05/03 - 07:45 AM57.4°54.3°
05/03 - 07:30 AM57.1°55.5°
05/03 - 07:15 AM57.1°57.0°
05/03 - 07:00 AM57.4°57.4°
05/03 - 06:45 AM56.7°56.7°
05/03 - 06:30 AM56.4°56.4°
05/03 - 06:15 AM56.2°56.2°
05/03 - 06:00 AM56.1°56.1°
05/03 - 05:45 AM56.2°56.2°
05/03 - 05:30 AM56.3°56.3°
05/03 - 05:15 AM56.5°56.5°
05/03 - 05:00 AM56.6°56.6°
05/03 - 04:45 AM57.0°57.0°
05/03 - 04:30 AM57.4°57.4°
05/03 - 04:15 AM58.0°58.0°
05/03 - 04:00 AM58.3°58.3°
05/03 - 03:45 AM58.7°58.7°
05/03 - 03:30 AM58.9°58.9°
05/03 - 03:15 AM59.2°59.2°
05/03 - 03:00 AM59.2°59.0°
05/03 - 02:45 AM59.5°59.2°
05/03 - 02:30 AM60.3°60.0°
05/03 - 02:15 AM60.3°59.8°
05/03 - 02:00 AM61.0°60.2°
05/03 - 01:45 AM63.5°62.4°
05/03 - 01:30 AM62.9°61.4°
05/03 - 01:15 AM63.2°61.4°
05/03 - 01:00 AM64.0°62.2°
05/03 - 12:45 AM64.1°62.3°
05/03 - 12:30 AM64.4°62.5°
05/03 - 12:15 AM64.7°62.7°
05/03 - 12:00 AM64.8°62.5°
05/02 - 11:45 PM65.8°63.6°
05/02 - 11:30 PM66.7°64.5°
05/02 - 11:15 PM67.3°64.6°
05/02 - 11:00 PM68.7°64.9°
05/02 - 10:45 PM68.5°63.7°
05/02 - 10:30 PM68.5°62.9°
05/02 - 10:15 PM71.2°65.5°
05/02 - 10:00 PM72.1°65.6°
05/02 - 09:45 PM72.9°65.2°
05/02 - 09:30 PM74.5°65.9°
05/02 - 09:15 PM75.3°64.8°
05/02 - 09:00 PM74.9°62.4°
05/02 - 08:45 PM74.2°58.8°
05/02 - 08:30 PM77.3°61.5°
05/02 - 08:15 PM75.7°62.1°
05/02 - 08:00 PM78.0°62.0°
05/02 - 07:45 PM79.1°60.9°
05/02 - 07:30 PM80.0°55.5°
05/02 - 07:15 PM81.5°53.4°
05/02 - 07:00 PM83.4°52.4°
05/02 - 06:45 PM85.4°51.9°
05/02 - 06:30 PM86.8°50.5°
05/02 - 06:15 PM87.5°49.9°
05/02 - 06:00 PM87.9°49.9°
05/02 - 05:45 PM88.1°48.6°
05/02 - 05:30 PM88.5°48.7°
05/02 - 05:15 PM88.6°48.5°
05/02 - 05:00 PM88.6°48.5°
05/02 - 04:45 PM88.5°48.1°
05/02 - 04:30 PM88.6°48.1°
05/02 - 04:15 PM88.5°47.7°
05/02 - 04:00 PM88.4°47.7°
05/02 - 03:45 PM88.3°47.2°
05/02 - 03:30 PM88.4°46.6°
05/02 - 03:15 PM88.2°46.4°
05/02 - 03:00 PM88.2°46.5°
05/02 - 02:45 PM87.4°46.7°
05/02 - 02:30 PM87.6°46.4°
05/02 - 02:15 PM86.9°46.4°
05/02 - 02:00 PM86.8°45.4°
05/02 - 01:45 PM86.7°44.3°
05/02 - 01:30 PM86.0°46.9°
05/02 - 01:15 PM84.8°50.9°
05/02 - 01:00 PM84.6°55.6°
05/02 - 12:45 PM84.4°54.5°
05/02 - 12:30 PM83.4°55.3°
05/02 - 12:15 PM83.0°55.5°
05/02 - 12:00 PM82.1°55.8°
05/02 - 11:45 AM81.5°55.7°
05/02 - 11:30 AM80.7°55.8°
05/02 - 11:15 AM80.9°55.7°
05/02 - 11:00 AM80.7°55.4°
05/02 - 10:45 AM79.6°55.3°
05/02 - 10:30 AM78.9°55.8°
05/02 - 10:15 AM77.1°55.4°
05/02 - 10:00 AM76.4°55.8°
05/02 - 09:45 AM75.4°56.2°
05/02 - 09:30 AM73.2°56.4°
05/02 - 09:15 AM71.7°55.4°
05/02 - 09:00 AM70.3°55.9°
05/02 - 08:45 AM68.3°56.4°
05/02 - 08:30 AM67.2°56.9°
05/02 - 08:15 AM66.3°57.0°
05/02 - 08:00 AM66.5°57.3°
05/02 - 07:45 AM66.6°59.0°
05/02 - 07:30 AM64.6°59.2°
05/02 - 07:15 AM62.9°62.2°
05/02 - 07:00 AM61.3°61.3°
05/02 - 06:45 AM58.7°58.7°
05/02 - 06:30 AM57.6°57.6°
05/02 - 06:15 AM58.5°58.5°
05/02 - 06:00 AM58.1°58.1°
05/02 - 05:45 AM59.3°59.1°
05/02 - 05:30 AM59.7°59.4°
05/02 - 05:15 AM59.2°58.9°
05/02 - 05:00 AM61.0°60.6°
05/02 - 04:45 AM59.3°58.9°
05/02 - 04:30 AM59.0°58.4°
05/02 - 04:15 AM58.6°57.8°
05/02 - 04:00 AM58.6°57.5°
05/02 - 03:45 AM59.0°57.6°
05/02 - 03:30 AM58.8°57.2°
05/02 - 03:15 AM59.7°57.7°
05/02 - 03:00 AM60.5°57.9°
05/02 - 02:45 AM62.0°59.2°
05/02 - 02:30 AM62.4°60.1°
05/02 - 02:15 AM61.8°60.6°
05/02 - 02:00 AM63.6°62.7°
05/02 - 01:45 AM65.2°64.0°
05/02 - 01:30 AM64.9°63.5°
05/02 - 01:15 AM63.9°62.2°
05/02 - 01:00 AM65.1°63.3°
05/02 - 12:45 AM66.0°63.9°
05/02 - 12:30 AM66.6°64.4°
05/02 - 12:15 AM65.9°63.9°
05/02 - 12:00 AM65.0°63.0°
05/01 - 11:45 PM64.3°61.6°
05/01 - 11:30 PM64.8°61.7°
05/01 - 11:15 PM65.0°61.2°
05/01 - 11:00 PM65.3°60.9°
05/01 - 10:45 PM66.0°61.2°
05/01 - 10:30 PM65.8°62.9°
05/01 - 10:15 PM65.4°63.9°
05/01 - 10:00 PM70.3°68.4°
05/01 - 09:45 PM68.0°65.7°
05/01 - 09:30 PM69.9°66.9°
05/01 - 09:15 PM69.2°65.9°
05/01 - 09:00 PM70.5°66.8°
05/01 - 08:45 PM72.4°68.1°
05/01 - 08:30 PM75.8°70.7°
05/01 - 08:15 PM75.6°69.3°